首页
METAR-TAF:

METAR-TAF

机场 :

克拉克斯堡, 西維吉尼亞州, 美国

纬度: 39-18-00N, 经度: 080-13-29W, 海拔: 366米

当前天气观测

该预报发布于1小时和6分钟前的12:53 UTC
温度
气压 1010 hPa

METAR: KCKB 191253Z AUTO A2982 RMK AO2 SLPNO PWINO FZRANO RVRNO $

时间: 08:59 (13:59 UTC)

预报

该预报发布于2小时和33分钟前的11:26 UTC
预报有效从19日的 12点(UTC)到 20日的 12点(UTC)
风速4节,风向多变
能見度: 10公里
多云层高于2500英尺
从 19日的 2200点(UTC)
风速3节,风向多变
能見度: 10公里
多云层高于3500英尺
从 20日的 0400点(UTC)
风速节,风向
能見度: 10公里
多云层高于2500英尺

TAF: KCKB 191126Z 1912/2012 VRB04KT P6SM BKN025 FM192200 VRB03KT P6SM BKN035 FM200400 00000KT P6SM BKN025 AMD NOT SKED

超过4000个机场的气象观测和天气预报(METAR&TAF报告)。

可查询的气象台以黄色和红色小点在地图上表示。

将鼠标移到小点上方,可查看气象台名称。

然后点击查看天气观测和预报。

如需切换地图:点击带黑十字的绿色按钮放大地图;点击带横线的绿色按钮缩小地图;或者点击绿色箭头查看邻近地区的地图。


METAR-TAF: